Flight Track Log - Related Links

Times and Time Zones

All times are in EDT time to prevent confusion due to time zone crossing. See the ASQ5527 flight status page for this flight to view local times or setup timezone preferences in your user account.

Time Position Orientation Groundspeed Altitude Reporting Facility
EDT Latitude Longitude Course Direction KTS MPH feet Rate Location/Type
03:09PM 33.6333 -84.3833 107° East 178 205 2,300  Level Atlanta TRACON
03:10PM 33.6167 -84.3167 107° East 258 297 3,600 1,983 Climbing Atlanta TRACON
03:11PM 33.5500 -84.2833 157° South 271 312 6,300 2,204 Climbing Atlanta TRACON
03:13PM 33.3850 -84.2750 178° South 286 329 10,800 1,754 Climbing Atlanta Center
03:14PM 33.3100 -84.2053 142° Southeast 298 343 12,000 1,400 Climbing Atlanta Center
03:15PM 33.2347 -84.1308 140° Southeast 339 390 13,600 1,600 Climbing Atlanta Center
03:16PM 33.1514 -84.0586 144° Southeast 357 411 15,200 1,550 Climbing Atlanta Center
03:17PM 33.0700 -83.9892 144° Southeast 364 419 16,700 1,300 Climbing Atlanta Center
03:18PM 32.9906 -83.9175 143° Southeast 364 419 17,800 1,200 Climbing Atlanta Center
03:19PM 32.9111 -83.8433 142° Southeast 364 419 19,100 1,200 Climbing Atlanta Center
03:20PM 32.8275 -83.7694 143° Southeast 364 419 20,200 950 Climbing Atlanta Center
03:21PM 32.7397 -83.6956 145° Southeast 375 432 21,000 400 Climbing Atlanta Center
03:22PM 32.6600 -83.6022 135° Southeast 388 447 21,000  Level Atlanta Center
03:23PM 32.5803 -83.5039 134° Southeast 400 460 21,000  Level Atlanta Center
03:26PM 32.3706 -83.2294 132° Southeast 433 498 21,000  Level Jacksonville Center
03:27PM 32.2936 -83.1211 130° Southeast 433 498 21,000  Level Jacksonville Center
03:28PM 32.2228 -83.0081 127° Southeast 438 504 21,000  Level Jacksonville Center
03:29PM 32.1581 -82.9047 126° Southeast 432 497 21,000 -150 Level Jacksonville Center
03:30PM 32.0872 -82.7919 127° Southeast 432 497 20,700 -1,150 Descending Jacksonville Center
03:31PM 32.0181 -82.6794 126° Southeast 432 497 18,700 -1,900 Descending Jacksonville Center
03:32PM 31.9572 -82.5792 126° Southeast 406 467 16,900 -1,900 Descending Jacksonville Center
03:33PM 31.8944 -82.4767 126° Southeast 391 450 14,900 -2,000 Descending Jacksonville Center
03:34PM 31.8356 -82.3814 126° Southeast 385 443 12,900 -2,050 Descending Jacksonville Center
03:35PM 31.7725 -82.2842 127° Southeast 371 427 10,800 -1,750 Descending Jacksonville Center
03:36PM 31.7242 -82.2061 126° Southeast 329 379 9,400 -1,550 Descending Jacksonville Center
03:37PM 31.6778 -82.1308 126° Southeast 284 327 7,700 -1,650 Descending Jacksonville Center
03:38PM 31.6336 -82.0606 126° Southeast 279 321 6,100 -1,350 Descending Jacksonville Center
03:39PM 31.5914 -81.9950 127° Southeast 272 313 5,000 -650 Descending Jacksonville Center
03:40PM 31.5447 -81.9222 127° Southeast 267 307 4,800 -450 Descending Jacksonville Center
03:41PM 31.5003 -81.8497 126° Southeast 272 313 4,100 -650 Descending Jacksonville Center
03:42PM 31.4581 -81.7819 126° Southeast 272 313 3,500 -550 Descending Jacksonville Center
03:43PM 31.4178 -81.7217 128° Southeast 267 307 3,000 -250 Descending Jacksonville Center
03:44PM 31.3756 -81.6539 126° Southeast 267 307 3,000 -450 Level Jacksonville Center
03:45PM 31.3103 -81.6183 155° Southeast 244 281 2,100 -700 Descending Jacksonville Center
03:46PM 31.2558 -81.5925 158° South 225 259 1,600 -400 Descending Jacksonville Center
03:47PM 31.2303 -81.5489 124° Southeast 179 206 1,300 -500 Descending Jacksonville Center
03:48PM 31.2444 -81.5075 68° East 130 150 600 1,850 Descending Jacksonville Center
03:49PM 31.2272 -81.4617 114° Southeast 130 150 5,000 4,400 Climbing Jacksonville Center

Login

Don't have an account? Register now (free) for customized features, flight alerts, and more!